Allison Park, Pennsylvania
Current Conditions -  °F | °C
As of 9:51 PM on Wednesday 22 Oct 2014 (Local Time) from KPIT Reporting Station
Overcast Overcast  
Wind Chill: 42°   Ceiling: 2000
Heat Index: 47°   Visibility: 10mi
Dew Point: 41°   Wind: 10mph
Humidity: 80%   Direction: 350°N
Pressure: 30.18"   Gusts: NA
Location:  40.56°N, 79.96°W
Report Text: KPIT 230151Z 35009KT 10SM BKN020 OVC025 08/05 A3018 RMK AO2 SLP233 T00830050
Loading
Personal Weather Stations






























Interactive Weather Map
Tropical Storm Tracking
New forecast layout! Learn more

10-Day Weather Forecast

Advertisements
Track Severe Weather on mobile